Search for airport 
image banner adimage banner ad
image banner ad

VEPY - Pakyong Airport

Located in Gangtok, India

ICAO - , IATA -

Data provided by Airmate  

General information

Coordinates: N27°13'33" E88°35'9"
Elevation is 4646 feet MSL.
 
Rated:
View ratings: [VIEW]


View others Airports in Sikkim

Operational data

Open for public use
Current time UTC:
Current local time:
Weather at : VEBD - Bagdogra ( 65 km )
METAR: VEBD 201730Z 00000KT 6000 FEW030 SCT100 25/23 Q1009 NOSIG
TAF: TAF VEBD 200930Z 2012/2024 12010KT 6000 SCT030 SCT100 TEMPO 2010/2012 2000 TSRA SCT015 FEW025TCU/CB SCT030 BKN080
View NOTAMs / SUP AIP / TFR affecting this airport [VIEW]
Communications frequencies: [VIEW]

Runways:

RWY identifierQFULength (ft)Width (ft)SurfaceLDA (ft)
0225°557798ASPH
20205°557798ASPH

Airport contact information

Address: Gangtok India

Satellite view of VEPY